»·PEaware :: N61658 KMYF-KNYL

N61658 :: KMYF-KNYL

FLIGHT INFORMATION

Flight Status: Arrived
Operator: Privately registered:
United States
More flights under this callsign
Pilot: Jordan O. (2051)
Aircraft: CIRRUS SR-22
(SR22)
More flights by this aircraft type
Origin: KMYF Montgomery
United States
Destination: KNYL Yuma MCAS/Yuma Intl
United States
More flights between these airports :: More routes between these airports
Route: MZB V66 IPL V458 BZA
File this flight plan on PilotEdge
Remarks:
Altitude:
(Current/Filed)
11,000ft
Speed:
(Current/Filed)
215kts
Departed: 26-Sep-22 07:51 PM
Arrived: 26-Sep-22 09:01 PM
Distance/Time
Traveled:
128nm/1:09
Distance/Time
To Go:
Arrived

Flight Plot

Page will automatically refresh every two minutes.


Map Options




Map Legend


Flown Route
Filed Route
Departure Airport
Arrival Airport
Navaid (VOR, NDB)
Fix

Horizontal Profiles

Position Reports

Time Latitude Longitude Heading Altitude Ground
Speed
26-Sep-22 19:11 32.813426 -117.141508 22 417ft 0kts
26-Sep-22 19:12 32.813426 -117.141508 22 417ft 0kts
26-Sep-22 19:12 32.813426 -117.141508 22 417ft 0kts
26-Sep-22 19:14 32.813426 -117.141508 22 417ft 0kts
26-Sep-22 19:15 32.813426 -117.141508 22 417ft 0kts
26-Sep-22 19:15 32.813426 -117.141508 22 417ft 0kts
26-Sep-22 19:16 32.813426 -117.141508 22 417ft 0kts
26-Sep-22 19:17 32.813426 -117.141508 22 417ft 0kts
26-Sep-22 19:18 32.813426 -117.141508 22 417ft 0kts
26-Sep-22 19:20 32.813426 -117.141508 22 417ft 0kts
26-Sep-22 19:20 32.813426 -117.141508 22 417ft 0kts
26-Sep-22 19:21 32.813426 -117.141508 22 417ft 0kts
26-Sep-22 19:22 32.813426 -117.141508 22 417ft 0kts
26-Sep-22 19:23 32.813426 -117.141508 22 417ft 0kts
26-Sep-22 19:24 32.813426 -117.141508 22 417ft 0kts
26-Sep-22 19:25 32.813426 -117.141508 22 417ft 0kts
26-Sep-22 19:26 32.813426 -117.141508 22 417ft 0kts
26-Sep-22 19:27 32.813426 -117.141508 22 417ft 0kts
26-Sep-22 19:28 32.813426 -117.141508 22 417ft 0kts
26-Sep-22 19:29 32.813426 -117.141508 22 417ft 0kts
26-Sep-22 19:30 32.813426 -117.141508 22 417ft 0kts
26-Sep-22 19:31 32.813426 -117.141508 22 417ft 0kts
26-Sep-22 19:32 32.813426 -117.141508 22 417ft 0kts
26-Sep-22 19:33 32.813426 -117.141508 22 417ft 0kts
26-Sep-22 19:34 32.813426 -117.141508 22 417ft 0kts
26-Sep-22 19:35 32.813426 -117.141508 22 417ft 0kts
26-Sep-22 19:36 32.813426 -117.141508 22 417ft 0kts
26-Sep-22 19:37 32.813426 -117.141508 22 417ft 0kts
26-Sep-22 19:38 32.813426 -117.141508 22 417ft 0kts
26-Sep-22 19:39 32.813429 -117.141507 22 417ft 0kts
26-Sep-22 19:40 32.813429 -117.141507 22 417ft 0kts
26-Sep-22 19:41 32.813429 -117.141507 22 417ft 0kts
26-Sep-22 19:42 32.813618 -117.141208 61 417ft 3kts
26-Sep-22 19:43 32.813815 -117.139383 114 420ft 7kts
26-Sep-22 19:44 32.812879 -117.137013 115 420ft 5kts
26-Sep-22 19:45 32.811673 -117.134026 121 423ft 15kts
26-Sep-22 19:46 32.811848 -117.131291 76 423ft 6kts
26-Sep-22 19:47 32.812002 -117.131206 338 423ft 0kts
26-Sep-22 19:48 32.812002 -117.131206 338 423ft 0kts
26-Sep-22 19:49 32.812164 -117.131257 341 423ft 5kts
26-Sep-22 19:50 32.815071 -117.136716 296 423ft 89kts
26-Sep-22 19:51 32.826711 -117.165335 293 1430ft 106kts
26-Sep-22 19:52 32.838435 -117.198155 291 2561ft 108kts
26-Sep-22 19:53 32.850461 -117.231765 291 3600ft 110kts
26-Sep-22 19:54 32.859555 -117.267127 252 4542ft 115kts
26-Sep-22 19:55 32.830741 -117.268886 152 5371ft 122kts
26-Sep-22 19:56 32.799842 -117.249693 150 6178ft 124kts
26-Sep-22 19:57 32.778230 -117.219721 80 6877ft 128kts
26-Sep-22 19:58 32.781789 -117.178917 90 7650ft 125kts
26-Sep-22 19:59 32.780982 -117.136986 90 8316ft 126kts
26-Sep-22 20:00 32.780467 -117.093911 90 8956ft 128kts
26-Sep-22 20:01 32.779860 -117.049870 90 9558ft 129kts
26-Sep-22 20:02 32.779240 -117.006094 90 10111ft 130kts
26-Sep-22 20:03 32.778599 -116.961968 90 10627ft 131kts
26-Sep-22 20:04 32.777934 -116.917330 90 11116ft 132kts
26-Sep-22 20:05 32.777225 -116.871136 91 11327ft 149kts
26-Sep-22 20:06 32.776385 -116.818509 90 11317ft 161kts
26-Sep-22 20:07 32.775492 -116.763114 90 11315ft 164kts
26-Sep-22 20:08 32.774574 -116.707500 90 11314ft 165kts
26-Sep-22 20:09 32.773624 -116.651436 90 11319ft 165kts
26-Sep-22 20:10 32.772653 -116.595546 90 11321ft 165kts
26-Sep-22 20:11 32.771628 -116.539489 90 11322ft 165kts
26-Sep-22 20:12 32.770598 -116.483953 90 11431ft 162kts
26-Sep-22 20:13 32.769538 -116.427612 90 11444ft 170kts
26-Sep-22 20:14 32.768415 -116.369492 90 11467ft 171kts
26-Sep-22 20:15 32.767277 -116.311467 90 11480ft 172kts
26-Sep-22 20:16 32.766310 -116.253808 90 11502ft 171kts
26-Sep-22 20:17 32.765159 -116.195879 90 11529ft 171kts
26-Sep-22 20:18 32.763962 -116.138481 90 11566ft 170kts
26-Sep-22 20:19 32.762714 -116.080255 90 11593ft 171kts
26-Sep-22 20:20 32.761433 -116.021661 90 11635ft 170kts
26-Sep-22 20:21 32.761128 -116.007843 90 11649ft 170kts
26-Sep-22 20:22 32.761128 -116.007843 90 11649ft 170kts
26-Sep-22 20:23 32.760354 -115.973275 90 11671ft 170kts
26-Sep-22 20:24 32.759160 -115.920727 90 11672ft 171kts
26-Sep-22 20:25 32.757816 -115.862732 90 11682ft 172kts
26-Sep-22 20:26 32.756446 -115.804724 90 11705ft 171kts
26-Sep-22 20:27 32.755058 -115.747072 90 11722ft 171kts
26-Sep-22 20:28 32.753643 -115.689406 90 11735ft 171kts
26-Sep-22 20:29 32.752201 -115.631624 90 11742ft 170kts
26-Sep-22 20:30 32.751060 -115.586250 90 11747ft 172kts
26-Sep-22 20:31 32.749944 -115.542966 90 11747ft 173kts
26-Sep-22 20:32 32.749536 -115.486749 87 11745ft 173kts
26-Sep-22 20:33 32.750973 -115.428118 86 11745ft 173kts
26-Sep-22 20:34 32.752114 -115.380673 87 11745ft 173kts
26-Sep-22 20:35 32.753491 -115.322301 87 11745ft 173kts
26-Sep-22 20:36 32.754842 -115.263940 87 11745ft 173kts
26-Sep-22 20:37 32.756152 -115.206138 87 11745ft 173kts
26-Sep-22 20:38 32.757382 -115.148868 87 11745ft 173kts
26-Sep-22 20:39 32.758619 -115.090898 87 11745ft 173kts
26-Sep-22 20:40 32.759851 -115.033095 87 11745ft 173kts
26-Sep-22 20:41 32.761103 -114.973098 87 11384ft 190kts
26-Sep-22 20:42 32.762452 -114.906178 87 10420ft 203kts
26-Sep-22 20:43 32.763756 -114.840203 88 9349ft 165kts
26-Sep-22 20:44 32.764721 -114.790409 87 8307ft 154kts
26-Sep-22 20:45 32.768277 -114.750379 51 7553ft 166kts
26-Sep-22 20:46 32.812716 -114.731459 22 6536ft 164kts
26-Sep-22 20:47 32.846922 -114.705433 42 5243ft 126kts
26-Sep-22 20:48 32.870430 -114.669855 60 4178ft 138kts
26-Sep-22 20:49 32.882990 -114.627753 78 3834ft 130kts
26-Sep-22 20:50 32.883672 -114.583037 97 3619ft 135kts
26-Sep-22 20:51 32.872399 -114.540549 115 3199ft 129kts
26-Sep-22 20:52 32.852056 -114.506409 132 3188ft 131kts
26-Sep-22 20:53 32.821646 -114.479497 151 3182ft 135kts
26-Sep-22 20:54 32.786066 -114.484156 196 3180ft 135kts
26-Sep-22 20:55 32.750550 -114.499149 223 3189ft 135kts
26-Sep-22 20:56 32.725188 -114.528883 221 1960ft 123kts
26-Sep-22 20:57 32.703330 -114.553427 224 1337ft 98kts
26-Sep-22 20:58 32.683375 -114.576123 224 714ft 97kts
26-Sep-22 20:59 32.664087 -114.598176 225 319ft 90kts
26-Sep-22 21:00 32.651989 -114.611992 220 190ft 31kts
26-Sep-22 21:01 32.650314 -114.614069 42 190ft 15kts
26-Sep-22 21:02 32.657815 -114.605182 44 190ft 40kts
26-Sep-22 21:03 32.662736 -114.603994 179 194ft 23kts
26-Sep-22 21:04 32.659201 -114.606993 224 190ft 13kts
26-Sep-22 21:05 32.659900 -114.609865 271 190ft 8kts

Navigation Log

Ident Type
Flight plan parsing failed, navigation log unavailable